Latest Coastal Weather Observations for Esperance

IDW60701

Issued at 3:05 am WST Thursday 28 August 2014 (issued every 10 minutes, with the page automatically refreshed every 10 minutes)

About coastal observations | Map of coastal stations | Coastal observations for WA | Marine services | Other Formats
Station Details ID: 009789 Name: ESPERANCE Lat: -33.83 Lon: 121.89 Height: 25.0 m
Data from the previous 72 hours. | See also: Recent months at Esperance
Date/Time
WST
Temp

°C
Wind Pressure Rain
since 9am
mm
Weather Cloud Vis
km
Sea
Height
m
Swell
Dir
 
Speed
knots
Gust
knots
hPa Trend Height
m
Period
s
Dir
28/03:00am 15.8 WNW 3 5 1016.7 R 0.0 - Mostly cloudy 10 - - - -
28/02:30am 16.6 WNW 6 8 1016.5 - 0.0 - - 10 - - - -
28/02:00am 17.2 NW 10 12 1016.8 - 0.0 - - 10 - - - -
28/01:30am 16.9 NW 10 13 1017.2 - 0.0 - - 10 - - - -
28/01:00am 16.6 W 9 12 1017.5 - 0.0 - - 10 - - - -
28/12:30am 19.3 N 7 11 1017.3 - 0.0 - - 10 - - - -
28/12:00am 19.1 N 7 11 1017.3 F 0.0 - Cloudy 10 - - - -
 
Date/Time
WST
Temp

°C
Wind Pressure Rain
since 9am
mm
Weather Cloud Vis
km
Sea
Height
m
Swell
Dir
 
Speed
knots
Gust
knots
hPa Trend Height
m
Period
s
Dir
27/11:30pm 17.5 NNW 6 10 1017.7 - 0.0 - Partly cloudy 10 - - - -
27/11:00pm 16.2 N 3 4 1017.8 - 0.0 - - 10 - - - -
27/10:30pm 16.2 N 5 8 1018.5 - 0.0 - - 10 - - - -
27/10:00pm 17.2 N 7 11 1018.6 - 0.0 - - 10 - - - -
27/09:30pm 17.1 E 5 6 1018.5 - 0.0 - - 10 - - - -
27/09:00pm 17.9 NE 7 9 1018.6 F 0.0 - Mostly cloudy 10 - - - -
27/08:30pm 17.9 NNE 5 6 1018.9 - 0.0 - - 10 - - - -
27/08:00pm 17.9 NNE 6 7 1018.9 - 0.0 - - 10 - - - -
27/07:30pm 17.6 N 5 7 1018.7 - 0.0 - - 9 - - - -
27/07:06pm 17.8 CALM 0 2 1018.5 - 0.0 - - 9 - - - -
27/07:00pm 17.7 CALM 0 0 1018.5 - 0.0 - - 8 - - - -
27/06:39pm 17.5 CALM 0 0 1018.4 - 0.0 - - 7 - - - -
27/06:30pm 17.6 CALM 0 3 1018.2 - 0.0 - - 8 - - - -
27/06:00pm 17.9 E 5 6 1018.0 F 0.0 Haze Mostly cloudy 8 - - - -
27/05:30pm 17.8 ESE 6 8 1018.0 - 0.0 - - 10 - - - -
27/05:00pm 17.8 ESE 8 11 1018.1 - 0.0 - - 10 - - - -
27/04:30pm 18.3 ESE 9 11 1018.3 - 0.0 - - 10 - - - -
27/04:00pm 19.0 ESE 10 14 1018.5 - 0.0 - - 10 - - - -
27/03:30pm 20.5 ESE 9 13 1018.5 - 0.0 - - 10 - - - -
27/03:00pm 24.5 NE 5 9 1018.8 F 0.0 Fine Mostly clear 30 - - - -
27/02:30pm 24.2 NE 8 12 1019.1 - 0.0 - - 10 - - - -
27/02:00pm 23.5 NE 7 12 1019.5 - 0.0 - - 10 - - - -
27/01:30pm 23.1 NE 6 11 1020.2 - 0.0 - Mostly clear 10 - - - -
27/01:00pm 22.4 NNE 8 12 1020.7 - 0.0 - - 10 - - - -
27/12:30pm 20.6 NNE 9 15 1021.4 - 0.0 - Partly cloudy 10 - - - -
27/12:00pm 19.8 NNE 8 13 1022.1 F 0.0 Fine Mostly clear 40 - - - -
27/11:30am 20.1 NE 8 16 1022.7 - 0.0 - Partly cloudy 10 - - - -
27/11:00am 18.6 NNE 11 15 1023.5 - 0.0 - Mostly cloudy 10 - - - -
27/10:30am 18.2 NNE 10 14 1024.0 - 0.0 - Mostly clear 10 - - - -
27/10:00am 17.4 NNE 10 14 1024.4 - 0.0 - Mostly clear 10 - - - -
27/09:30am 17.6 NNE 10 17 1024.7 - 0.0 - Mostly clear 10 - - - -
27/09:00am 16.8 NE 9 13 1025.0 F 0.0 Fine Mostly clear 25 - - - -
27/08:30am 15.8 NNE 9 13 1025.1 - 0.0 - Mostly clear 10 - - - -
27/08:00am 15.2 NE 8 12 1025.1 - 0.0 - Partly cloudy 10 - - - -
27/07:30am 14.0 NE 7 10 1025.1 - 0.0 - Mostly cloudy 10 - - - -
27/07:00am 13.2 NNE 7 10 1025.0 - 0.0 - Mostly cloudy 10 - - - -
27/06:30am 12.9 ENE 4 6 1024.8 - 0.0 - Mostly clear 10 - - - -
27/06:00am 12.9 ENE 4 5 1024.6 F 0.0 Haze Mostly cloudy 20 - - - -
27/05:30am 13.0 NE 4 6 1024.6 - 0.0 - Cloudy 10 - - - -
27/05:00am 13.0 E 5 7 1024.7 - 0.0 - Partly cloudy 10 - - - -
27/04:30am 13.4 E 5 9 1024.8 - 0.0 - Partly cloudy 10 - - - -
27/04:00am 13.6 E 5 7 1024.8 - 0.0 - Partly cloudy 10 - - - -
27/03:30am 13.9 E 6 9 1024.7 - 0.0 - Cloudy 10 - - - -
27/03:00am 14.4 E 5 8 1024.7 R 0.0 - Cloudy 10 - - - -
27/02:30am 14.3 ESE 9 14 1024.7 - 0.0 - Cloudy 10 - - - -
27/02:00am 14.5 E 6 9 1024.9 - 0.0 - Partly cloudy 10 - - - -
27/01:30am 14.3 E 5 9 1025.0 - 0.0 - Cloudy 10 - - - -
27/01:00am 14.3 ENE 4 6 1025.2 - 0.0 - Cloudy 10 - - - -
27/12:30am 14.5 E 5 7 1025.3 - 0.0 - Cloudy 10 - - - -
27/12:00am 14.9 E 5 8 1025.4 R 0.0 - Cloudy 10 - - - -
 
Date/Time
WST
Temp

°C
Wind Pressure Rain
since 9am
mm
Weather Cloud Vis
km
Sea
Height
m
Swell
Dir
 
Speed
knots
Gust
knots
hPa Trend Height
m
Period
s
Dir
26/11:30pm 15.3 ESE 9 12 1025.5 - 0.0 - Cloudy 10 - - - -
26/11:00pm 15.3 SE 10 13 1025.4 - 0.0 - Partly cloudy 10 - - - -
26/10:30pm 15.5 SE 9 12 1025.6 - 0.0 - Cloudy 10 - - - -
26/10:00pm 15.7 SSE 9 12 1025.5 - 0.0 - Partly cloudy 10 - - - -
26/09:30pm 15.5 SSE 7 9 1025.7 - 0.0 - Cloudy 10 - - - -
26/09:00pm 15.6 SSE 10 13 1025.6 R 0.0 - Cloudy 10 - - - -
26/08:30pm 15.7 SSE 9 14 1025.5 - 0.0 - Cloudy 10 - - - -
26/08:00pm 15.7 SSE 8 11 1025.4 - 0.0 - Cloudy 10 - - - -
26/07:30pm 15.7 SSE 8 12 1025.2 - 0.0 - Mostly clear 10 - - - -
26/07:00pm 15.7 S 9 12 1025.1 - 0.0 - Mostly clear 10 - - - -
26/06:30pm 15.7 S 8 11 1024.7 - 0.0 - Mostly cloudy 10 - - - -
26/06:00pm 15.7 S 8 13 1024.4 R 0.0 Haze Cloudy 20 - - - -
26/05:30pm 15.8 S 7 10 1024.1 - 0.0 - Mostly cloudy 10 - - - -
26/05:00pm 15.8 S 10 15 1023.8 - 0.0 - Mostly clear 10 - - - -
26/04:30pm 15.9 S 11 17 1023.5 - 0.0 - Partly cloudy 10 - - - -
26/04:00pm 16.3 S 11 16 1023.2 - 0.0 - Mostly cloudy 10 - - - -
26/03:30pm 16.6 S 11 14 1023.0 - 0.0 - Mostly cloudy 10 - - - -
26/03:00pm 16.6 SSW 11 16 1022.7 R 0.0 Fine Mostly cloudy 30 - - - -
26/02:30pm 16.4 S 13 20 1022.5 - 0.0 - Mostly clear 10 - - - -
26/02:17pm 16.7 S 13 18 1022.3 - 0.0 - Partly cloudy 10 - - - -
26/02:00pm 17.2 S 12 19 1022.4 - 0.0 - Partly cloudy 10 - - - -
26/01:30pm 17.0 S 15 22 1022.0 - 0.0 - Mostly clear 10 - - - -
26/01:11pm 17.9 SSW 14 22 1021.9 - 0.0 - Mostly clear 10 - - - -
26/01:00pm 18.1 SSW 14 22 1022.0 - 0.0 - Mostly clear 10 - - - -
26/12:30pm 19.0 SW 15 24 1022.0 - 0.0 - Mostly clear 10 - - - -
26/12:00pm 19.5 WSW 15 22 1022.0 R 0.0 Fine Partly cloudy 30 - - - -
26/11:30am 20.7 WSW 13 19 1021.8 - 0.0 - - 10 - - - -
26/11:00am 20.3 WSW 13 19 1021.7 - 0.0 - Mostly clear 10 - - - -
26/10:30am 21.7 W 9 14 1021.6 - 0.0 - Mostly clear 10 - - - -
26/10:00am 19.7 WNW 7 10 1021.4 - 0.0 - - 10 - - - -
26/09:30am 19.0 NW 7 9 1021.4 - 0.0 - - 10 - - - -
26/09:00am 18.7 NW 7 10 1021.5 R 0.0 Fine Mostly cloudy 30 - - - -
26/08:30am 17.9 NW 7 9 1021.3 - 0.0 - - 10 - - - -
26/08:00am 15.9 NNW 6 8 1021.0 - 0.0 - - 10 - - - -
26/07:30am 14.5 NW 7 8 1020.7 - 0.0 - - 10 - - - -
26/07:00am 13.1 NW 6 7 1020.3 - 0.0 - - 10 - - - -
26/06:30am 13.1 WNW 8 10 1020.1 - 0.0 - - 10 - - - -
26/06:00am 13.7 WNW 6 8 1019.9 R 0.0 Fine Partly cloudy 30 - - - -
26/05:30am 13.1 NNW 5 7 1019.7 - 0.0 - - 10 - - - -
26/05:00am 13.0 N 5 6 1019.4 - 0.0 - - 10 - - - -
26/04:30am 13.3 N 5 6 1019.2 - 0.0 - - 10 - - - -
26/04:00am 13.7 N 6 7 1019.1 - 0.0 - - 10 - - - -
26/03:30am 14.0 N 5 6 1018.9 - 0.0 - - 10 - - - -
26/03:00am 13.3 N 5 6 1018.8 F 0.0 - Partly cloudy 10 - - - -
26/02:30am 14.0 N 6 7 1019.0 - 0.0 - - 10 - - - -
26/02:00am 14.3 N 6 7 1019.0 - 0.0 - - 10 - - - -
26/01:30am 14.3 N 6 7 1019.3 - 0.0 - - 10 - - - -
26/01:00am 14.5 N 4 5 1019.5 - 0.0 - - 10 - - - -
26/12:30am 14.4 NNW 4 4 1019.7 - 0.0 - - 10 - - - -
26/12:00am 14.5 NW 6 7 1020.0 R 0.0 - Mostly cloudy 10 - - - -
 
Date/Time
WST
Temp

°C
Wind Pressure Rain
since 9am
mm
Weather Cloud Vis
km
Sea
Height
m
Swell
Dir
 
Speed
knots
Gust
knots
hPa Trend Height
m
Period
s
Dir
25/11:30pm 13.8 N 5 6 1020.1 - 0.0 - - 10 - - - -
25/11:00pm 14.1 N 3 7 1020.0 - 0.0 - - 10 - - - -
25/10:30pm 14.3 N 6 8 1019.8 - 0.0 - - 10 - - - -
25/10:00pm 14.5 N 7 9 1019.9 - 0.0 - - 10 - - - -
25/09:30pm 13.8 N 5 8 1020.0 - 0.0 - - 10 - - - -
25/09:00pm 14.4 NE 5 7 1019.9 F 0.0 - - 10 - - - -
25/08:30pm 15.3 NNE 4 5 1020.2 - 0.0 - - 10 - - - -
25/08:00pm 16.0 NNE 4 6 1020.2 - 0.0 - - 10 - - - -
25/07:30pm 15.5 NNE 4 6 1020.3 - 0.0 - - 10 - - - -
25/07:00pm 16.8 ENE 4 5 1020.0 - 0.0 - - 10 - - - -
25/06:30pm 17.2 ESE 5 7 1019.8 - 0.0 - - 10 - - - -
25/06:00pm 17.6 ESE 4 5 1019.5 F 0.0 Fine Mostly clear 25 - - - -
25/05:30pm 18.5 ENE 2 4 1019.4 - 0.0 - - 10 - - - -
25/05:00pm 18.9 ESE 3 5 1019.2 - 0.0 - - 10 - - - -
25/04:30pm 19.6 ESE 6 7 1019.2 - 0.0 - Mostly clear 10 - - - -
25/04:00pm 20.1 SSE 8 10 1019.2 - 0.0 - Mostly clear 10 - - - -
25/03:30pm 21.2 SE 7 9 1019.4 - 0.0 - Mostly clear 10 - - - -
25/03:00pm 21.0 SE 8 11 1019.5 F 0.0 Fine Mostly clear 40 - - - -
25/02:30pm 21.4 SE 7 10 1019.6 - 0.0 - - 10 - - - -
25/02:13pm 21.8 SE 7 10 1019.7 - 0.0 - - 10 - - - -
25/02:00pm 27.1 NNW 7 11 1019.8 - 0.0 - - 10 - - - -
25/01:30pm 26.9 NNW 9 11 1020.0 - 0.0 - - 10 - - - -
25/01:00pm 26.2 NNW 7 10 1020.3 - 0.0 - - 10 - - - -
25/12:30pm 25.6 NNW 5 8 1020.7 - 0.0 - - 10 - - - -
25/12:00pm 24.8 NW 7 11 1021.3 F 0.0 Fine Clear 30 - - - -
25/11:30am 23.9 WNW 8 12 1022.0 - 0.0 - - 10 - - - -
25/11:00am 22.7 NW 7 9 1022.3 - 0.0 - - 10 - - - -
25/10:30am 21.5 WNW 8 11 1022.7 - 0.0 - - 10 - - - -
25/10:00am 20.0 NW 7 10 1023.1 - 0.0 - - 10 - - - -
25/09:30am 18.7 WNW 7 9 1023.1 - 0.0 - - 10 - - - -
25/09:00am 16.6 WNW 4 5 1023.0 F 0.0 Fine Clear 30 - - - -
25/08:30am 14.4 NW 4 5 1022.9 - 0.0 - - 10 - - - -
25/08:00am 12.4 W 3 4 1022.8 - 0.0 - - 10 - - - -
25/07:30am 10.5 WNW 4 5 1022.9 - 0.0 - - 10 - - - -
25/07:00am 8.9 NW 5 7 1022.5 - 0.0 - - 10 - - - -
25/06:30am 8.7 NNW 4 5 1022.4 - 0.0 - - 10 - - - -
25/06:00am 8.7 N 5 6 1022.2 F 0.0 Haze Partly cloudy 25 - - - -
25/05:30am 8.5 NW 4 6 1022.1 - 0.0 - - 10 - - - -
25/05:00am 8.5 WNW 5 7 1022.0 - 0.0 - - 10 - - - -
25/04:30am 9.0 W 5 7 1022.0 - 0.0 - - 10 - - - -
25/04:00am 9.3 NW 3 4 1021.9 - 0.0 - - 10 - - - -
25/03:30am 9.7 NNW 3 4 1021.7 - 0.0 - - 10 - - - -

Other Formats:

Comma delimited format used in spreadsheet applications
http://www.bom.gov.au/fwo/IDW60701/IDW60701.94638.axf

JavaScript Object Notation format (JSON) in row-major order
http://www.bom.gov.au/fwo/IDW60701/IDW60701.94638.json